createdAt,value
2017-07-16T00:00:50.684Z,75.35
2017-07-16T00:01:50.674Z,75.54
2017-07-16T00:02:51.797Z,75.45
2017-07-16T00:03:49.716Z,75.07
2017-07-16T00:04:49.447Z,75.45
2017-07-16T00:05:53.000Z,76.02
2017-07-16T00:06:46.571Z,76.02
2017-07-16T00:07:46.566Z,76.56
2017-07-16T00:08:46.566Z,77.04
2017-07-16T00:09:46.755Z,77.61
2017-07-16T00:10:58.488Z,77.99
2017-07-16T00:11:46.642Z,77.9
2017-07-16T00:12:46.360Z,78.09
2017-07-16T00:13:46.565Z,78.57
2017-07-16T00:14:46.585Z,78.09
2017-07-16T00:15:50.341Z,79.14
2017-07-16T00:16:58.875Z,79.14
2017-07-16T00:17:46.256Z,78.95
2017-07-16T00:18:46.573Z,79.72
2017-07-16T00:19:46.570Z,80
2017-07-16T00:20:53.416Z,80.16
2017-07-16T00:21:46.579Z,80.54
2017-07-16T00:22:46.229Z,80.44
2017-07-16T00:23:46.397Z,80.44
2017-07-16T00:24:46.570Z,80.92
2017-07-16T00:25:51.724Z,81.4
2017-07-16T00:26:46.230Z,81.21
2017-07-16T00:27:46.230Z,81.3
2017-07-16T00:28:46.227Z,81.59
2017-07-16T00:29:46.566Z,81.02
2017-07-16T00:30:51.944Z,81.59
2017-07-16T00:31:46.582Z,81.02
2017-07-16T00:32:46.447Z,80.92
2017-07-16T00:33:46.235Z,81.21
2017-07-16T00:34:46.228Z,81.15
2017-07-16T00:35:50.402Z,81.21
2017-07-16T00:36:46.592Z,81.34
2017-07-16T00:37:46.617Z,81.25
2017-07-16T00:38:46.564Z,81.44
2017-07-16T00:39:46.593Z,81.15
2017-07-16T00:40:50.033Z,81.15
2017-07-16T00:41:46.560Z,81.44
2017-07-16T00:42:46.279Z,80.67
2017-07-16T00:43:46.565Z,81.02
2017-07-16T00:44:46.571Z,81.02
2017-07-16T00:45:50.413Z,80.44
2017-07-16T00:46:46.561Z,80.16
2017-07-16T00:47:48.722Z,79.58
2017-07-16T00:48:46.238Z,80.44
2017-07-16T00:49:46.571Z,80.16
2017-07-16T00:50:51.336Z,80.25
2017-07-16T00:51:46.562Z,80.35
2017-07-16T00:52:46.632Z,80.92
2017-07-16T00:53:46.768Z,81.4
2017-07-16T00:54:46.562Z,81.49
2017-07-16T00:55:51.033Z,81.78
2017-07-16T00:56:46.230Z,81.4
2017-07-16T00:57:46.225Z,80.92
2017-07-16T00:58:46.570Z,80.44
2017-07-16T00:59:46.223Z,80.44
2017-07-16T01:00:52.574Z,80.29
2017-07-16T01:01:46.230Z,79.87
2017-07-16T01:02:46.568Z,80.35
2017-07-16T01:03:46.561Z,79.91
2017-07-16T01:04:46.566Z,79.14
2017-07-16T01:05:53.059Z,78.86
2017-07-16T01:06:46.232Z,79.14
2017-07-16T01:07:46.560Z,79.14
2017-07-16T01:08:46.567Z,78.95
2017-07-16T01:09:46.231Z,79.14
2017-07-16T01:10:52.401Z,79.05
2017-07-16T01:11:46.592Z,78.86
2017-07-16T01:12:46.237Z,78.76
2017-07-16T01:13:46.573Z,78.86
2017-07-16T01:14:46.722Z,78.95
2017-07-16T01:15:52.113Z,78.76
2017-07-16T01:16:46.564Z,78.57
2017-07-16T01:17:46.573Z,78.76
2017-07-16T01:18:47.436Z,79.14
2017-07-16T01:19:46.581Z,79.14
2017-07-16T01:20:49.929Z,79.24
2017-07-16T01:21:46.230Z,78.86
2017-07-16T01:22:46.565Z,80
2017-07-16T01:23:46.638Z,80
2017-07-16T01:24:46.558Z,80.06
2017-07-16T01:25:53.810Z,80.73
2017-07-16T01:26:46.563Z,80.54
2017-07-16T01:27:46.231Z,80.58
2017-07-16T01:28:46.609Z,80
2017-07-16T01:29:46.252Z,80.29
2017-07-16T01:30:51.458Z,80
2017-07-16T01:31:46.574Z,80.29
2017-07-16T01:32:46.566Z,80.38
2017-07-16T01:33:46.372Z,80.63
2017-07-16T01:34:46.228Z,81.02
2017-07-16T01:35:50.559Z,81.49
2017-07-16T01:36:46.568Z,81.88
2017-07-16T01:37:46.270Z,81.97
2017-07-16T01:38:46.621Z,82.17
2017-07-16T01:39:46.559Z,82.26
2017-07-16T01:40:51.779Z,82.64
2017-07-16T01:41:46.580Z,82.74
2017-07-16T01:42:46.231Z,82.6
2017-07-16T01:43:46.243Z,82.35
2017-07-16T01:44:46.233Z,82.83
2017-07-16T01:45:53.547Z,82.31
2017-07-16T01:46:46.650Z,82.41
2017-07-16T01:47:46.223Z,82.6
2017-07-16T01:48:46.558Z,82.79
2017-07-16T01:49:46.556Z,82.6
2017-07-16T01:50:49.927Z,82.51
2017-07-16T01:51:46.562Z,82.31
2017-07-16T01:52:46.223Z,83.17
2017-07-16T01:53:46.259Z,82.89
2017-07-16T01:54:46.268Z,83.65
2017-07-16T01:55:52.288Z,83.27
2017-07-16T01:56:46.551Z,83.65
2017-07-16T01:57:46.550Z,83.75
2017-07-16T01:58:46.554Z,83.65
2017-07-16T01:59:46.238Z,83.65
2017-07-16T02:00:52.243Z,83.4
2017-07-16T02:01:46.211Z,83.37
2017-07-16T02:02:46.549Z,83.69
2017-07-16T02:03:46.546Z,82.83
2017-07-16T02:04:46.304Z,83.27
2017-07-16T02:05:51.602Z,83.69
2017-07-16T02:06:46.549Z,83.31
2017-07-16T02:07:46.555Z,83.65
2017-07-16T02:08:46.208Z,83.56
2017-07-16T02:09:46.558Z,83.46
2017-07-16T02:10:51.620Z,83.56
2017-07-16T02:11:46.639Z,83.84
2017-07-16T02:12:46.551Z,83.65
2017-07-16T02:13:46.544Z,84.13
2017-07-16T02:14:46.210Z,83.84
2017-07-16T02:15:53.809Z,83.94
2017-07-16T02:16:46.729Z,83.75
2017-07-16T02:17:46.207Z,84.13
2017-07-16T02:18:46.548Z,84.13
2017-07-16T02:19:46.549Z,84.23
2017-07-16T02:20:51.447Z,83.75
2017-07-16T02:21:46.215Z,83.75
2017-07-16T02:22:46.544Z,84.13
2017-07-16T02:23:46.546Z,83.65
2017-07-16T02:24:46.641Z,83.46
2017-07-16T02:25:53.069Z,83.5
2017-07-16T02:26:46.233Z,83.22
2017-07-16T02:27:46.537Z,83.31
2017-07-16T02:28:46.209Z,83.69
2017-07-16T02:29:46.256Z,84.17
2017-07-16T02:30:53.105Z,83.89
2017-07-16T02:31:46.534Z,84.17
2017-07-16T02:32:46.200Z,84.27
2017-07-16T02:33:46.201Z,84.03
2017-07-16T02:34:46.350Z,84.61
2017-07-16T02:35:52.300Z,84.8
2017-07-16T02:36:46.279Z,85.38
2017-07-16T02:37:46.537Z,85.09
2017-07-16T02:38:46.572Z,85.18
2017-07-16T02:39:46.584Z,84.99
2017-07-16T02:40:51.587Z,85.94
2017-07-16T02:41:46.544Z,86.04
2017-07-16T02:42:46.537Z,85.66
2017-07-16T02:43:46.531Z,85.66
2017-07-16T02:44:46.583Z,85.85
2017-07-16T02:45:52.955Z,86.33
2017-07-16T02:46:46.193Z,86.43
2017-07-16T02:47:46.194Z,86.71
2017-07-16T02:48:46.189Z,86.61
2017-07-16T02:49:48.102Z,87.09
2017-07-16T02:50:49.613Z,87.19
2017-07-16T02:51:46.536Z,87.29
2017-07-16T02:52:46.188Z,87.19
2017-07-16T02:53:46.194Z,87.72
2017-07-16T02:54:46.572Z,87.29
2017-07-16T02:55:54.130Z,87.24
2017-07-16T02:56:46.517Z,87.38
2017-07-16T02:57:46.189Z,87.53
2017-07-16T02:58:46.269Z,87.29
2017-07-16T02:59:46.569Z,87.48
2017-07-16T03:00:53.646Z,87.19
2017-07-16T03:01:46.546Z,86.8
2017-07-16T03:02:46.531Z,87.09
2017-07-16T03:03:46.602Z,87.19
2017-07-16T03:04:46.660Z,86.61
2017-07-16T03:05:50.054Z,86.8
2017-07-16T03:06:46.526Z,86.52
2017-07-16T03:07:46.516Z,86.61
2017-07-16T03:08:46.509Z,86.52
2017-07-16T03:09:46.521Z,86.23
2017-07-16T03:10:48.469Z,86.52
2017-07-16T03:11:46.169Z,85.75
2017-07-16T03:12:46.510Z,85.75
2017-07-16T03:13:46.516Z,85.66
2017-07-16T03:14:46.178Z,85.38
2017-07-16T03:15:54.438Z,85.47
2017-07-16T03:16:46.177Z,85.32
2017-07-16T03:17:46.523Z,85.41
2017-07-16T03:18:46.522Z,85.18
2017-07-16T03:19:46.172Z,85.09
2017-07-16T03:20:51.285Z,85.71
2017-07-16T03:21:46.164Z,85.94
2017-07-16T03:22:46.173Z,86.14
2017-07-16T03:23:46.166Z,86.61
2017-07-16T03:24:46.514Z,86.33
2017-07-16T03:25:55.547Z,86.23
2017-07-16T03:26:46.501Z,86.52
2017-07-16T03:27:46.162Z,86.71
2017-07-16T03:28:46.494Z,86.9
2017-07-16T03:29:46.494Z,87.19
2017-07-16T03:30:55.648Z,86.9
2017-07-16T03:31:46.158Z,86.8
2017-07-16T03:32:46.493Z,86.43
2017-07-16T03:33:46.499Z,86.71
2017-07-16T03:34:46.156Z,86.04
2017-07-16T03:35:53.571Z,86.33
2017-07-16T03:36:46.495Z,85.94
2017-07-16T03:37:46.495Z,86.23
2017-07-16T03:38:46.497Z,85.66
2017-07-16T03:39:46.491Z,85.57
2017-07-16T03:40:55.659Z,85.75
2017-07-16T03:41:46.156Z,85.75
2017-07-16T03:42:46.489Z,86.33
2017-07-16T03:43:46.156Z,85.38
2017-07-16T03:44:46.487Z,85.18
2017-07-16T03:45:51.530Z,85.57
2017-07-16T03:46:46.163Z,85.75
2017-07-16T03:47:46.501Z,85.66
2017-07-16T03:48:46.490Z,84.99
2017-07-16T03:49:46.489Z,84.89
2017-07-16T03:50:53.455Z,85.18
2017-07-16T03:51:46.488Z,85.03
2017-07-16T03:52:46.495Z,84.75
2017-07-16T03:53:46.487Z,84.55
2017-07-16T03:54:46.491Z,83.89
2017-07-16T03:55:52.745Z,84.08
2017-07-16T03:56:46.486Z,83.89
2017-07-16T03:57:46.486Z,84.08
2017-07-16T03:58:46.488Z,83.79
2017-07-16T03:59:46.485Z,84.08
2017-07-16T04:00:52.215Z,84.65
2017-07-16T04:01:46.487Z,84.84
2017-07-16T04:02:46.524Z,84.84
2017-07-16T04:03:46.491Z,84.55
2017-07-16T04:04:46.492Z,84.55
2017-07-16T04:05:50.386Z,84.27
2017-07-16T04:06:46.487Z,83.6
2017-07-16T04:07:46.493Z,84.36
2017-07-16T04:08:46.513Z,83.89
2017-07-16T04:09:46.481Z,83.31
2017-07-16T04:10:52.023Z,83.31
2017-07-16T04:11:46.148Z,83.69
2017-07-16T04:12:46.162Z,83.12
2017-07-16T04:13:46.488Z,83.03
2017-07-16T04:14:46.510Z,83.12
2017-07-16T04:15:54.318Z,82.3
2017-07-16T04:16:46.489Z,82.01
2017-07-16T04:17:46.490Z,81.68
2017-07-16T04:18:46.489Z,82.07
2017-07-16T04:19:46.144Z,82.07
2017-07-16T04:21:01.515Z,82.07
2017-07-16T04:21:46.503Z,82.54
2017-07-16T04:22:46.484Z,82.93
2017-07-16T04:23:46.484Z,82.74
2017-07-16T04:24:46.485Z,82.45
2017-07-16T04:25:50.443Z,82.45
2017-07-16T04:26:46.487Z,81.88
2017-07-16T04:27:46.483Z,81.97
2017-07-16T04:28:46.489Z,81.68
2017-07-16T04:29:46.487Z,81.97
2017-07-16T04:30:55.423Z,81.78
2017-07-16T04:31:46.553Z,81.97
2017-07-16T04:32:46.486Z,81.97
2017-07-16T04:33:46.540Z,81.82
2017-07-16T04:34:46.150Z,81.59
2017-07-16T04:35:54.578Z,81.97
2017-07-16T04:36:46.585Z,81.78
2017-07-16T04:37:46.490Z,81.59
2017-07-16T04:38:46.497Z,81.97
2017-07-16T04:39:46.150Z,81.34
2017-07-16T04:40:53.299Z,81.15
2017-07-16T04:41:46.211Z,81.34
2017-07-16T04:42:46.152Z,80.87
2017-07-16T04:43:46.502Z,80.96
2017-07-16T04:44:46.495Z,81.15
2017-07-16T04:45:52.754Z,81.05
2017-07-16T04:46:46.570Z,81.25
2017-07-16T04:47:46.155Z,80.96
2017-07-16T04:48:46.491Z,81.44
2017-07-16T04:49:46.501Z,80.96
2017-07-16T04:50:55.408Z,81.34
2017-07-16T04:51:49.008Z,81.34
2017-07-16T04:52:46.156Z,81.34
2017-07-16T04:53:46.156Z,81.44
2017-07-16T04:54:46.493Z,81.05
2017-07-16T04:55:51.997Z,80.67
2017-07-16T04:56:46.507Z,80.58
2017-07-16T04:57:46.181Z,80.77
2017-07-16T04:58:46.497Z,80.48
2017-07-16T04:59:46.160Z,80.96
2017-07-16T05:00:50.609Z,80.67
2017-07-16T05:01:46.514Z,80.38
2017-07-16T05:02:46.163Z,80.29
2017-07-16T05:03:46.200Z,80.38
2017-07-16T05:04:46.165Z,79.81
2017-07-16T05:05:52.308Z,80
2017-07-16T05:06:46.505Z,80
2017-07-16T05:07:46.165Z,79.52
2017-07-16T05:08:46.174Z,79.43
2017-07-16T05:09:46.519Z,78.95
2017-07-16T05:10:54.289Z,78.51
2017-07-16T05:11:46.167Z,78.51
2017-07-16T05:12:46.506Z,78.51
2017-07-16T05:13:46.511Z,78.13
2017-07-16T05:14:46.508Z,78.89
2017-07-16T05:15:50.668Z,78.7
2017-07-16T05:16:46.280Z,78.42
2017-07-16T05:17:46.573Z,77.94
2017-07-16T05:18:46.523Z,78.32
2017-07-16T05:19:46.246Z,78.03
2017-07-16T05:20:51.724Z,78.13
2017-07-16T05:21:46.190Z,78.13
2017-07-16T05:22:46.518Z,77.75
2017-07-16T05:23:46.522Z,77.88
2017-07-16T05:24:46.182Z,78.36
2017-07-16T05:25:51.849Z,78.07
2017-07-16T05:26:46.557Z,77.78
2017-07-16T05:27:47.198Z,77.4
2017-07-16T05:28:46.538Z,77.02
2017-07-16T05:29:46.525Z,77.5
2017-07-16T05:30:53.021Z,77.5
2017-07-16T05:31:46.196Z,76.73
2017-07-16T05:32:46.582Z,76.92
2017-07-16T05:33:46.195Z,77.21
2017-07-16T05:34:46.530Z,77.21
2017-07-16T05:35:53.474Z,77.02
2017-07-16T05:36:46.544Z,76.44
2017-07-16T05:37:46.687Z,76.44
2017-07-16T05:38:46.546Z,76.54
2017-07-16T05:39:46.551Z,76.44
2017-07-16T05:40:53.356Z,76.54
2017-07-16T05:41:46.584Z,75.96
2017-07-16T05:42:46.593Z,76.44
2017-07-16T05:43:46.259Z,75.96
2017-07-16T05:44:46.551Z,76
2017-07-16T05:45:52.810Z,76
2017-07-16T05:46:46.549Z,75.23
2017-07-16T05:47:46.603Z,75.23
2017-07-16T05:48:46.215Z,74.37
2017-07-16T05:49:46.223Z,73.8
2017-07-16T05:50:51.892Z,73.99
2017-07-16T05:51:46.222Z,73.35
2017-07-16T05:52:47.165Z,74.02
2017-07-16T05:53:46.564Z,73.16
2017-07-16T05:54:46.567Z,73.45
2017-07-16T05:55:52.329Z,72.97
2017-07-16T05:56:46.574Z,73.16
2017-07-16T05:57:46.623Z,73.35
2017-07-16T05:58:46.581Z,72.97
2017-07-16T05:59:46.249Z,72.2
2017-07-16T06:00:54.920Z,71.57
2017-07-16T06:01:46.686Z,71.47
2017-07-16T06:02:46.289Z,71.47
2017-07-16T06:03:46.243Z,71.47
2017-07-16T06:04:46.245Z,71.09
2017-07-16T06:05:51.841Z,69.11
2017-07-16T06:06:46.589Z,68.08
2017-07-16T06:07:47.841Z,65.81
2017-07-16T06:08:46.596Z,63.92
2017-07-16T06:09:46.607Z,63.18
2017-07-16T06:10:51.907Z,62.99
2017-07-16T06:11:46.600Z,63.38
2017-07-16T06:12:46.659Z,63.67
2017-07-16T06:13:46.609Z,63.38
2017-07-16T06:14:46.274Z,63.57
2017-07-16T06:15:52.450Z,63.38
2017-07-16T06:16:46.285Z,63.38
2017-07-16T06:17:46.676Z,63.38
2017-07-16T06:18:46.633Z,63.09
2017-07-16T06:19:46.636Z,62.71
2017-07-16T06:20:51.744Z,60.72
2017-07-16T06:21:46.658Z,60.27
2017-07-16T06:22:47.771Z,58.65
2017-07-16T06:23:46.318Z,57.24
2017-07-16T06:24:46.668Z,56.47
2017-07-16T06:25:53.723Z,56.21
2017-07-16T06:26:46.334Z,56.3
2017-07-16T06:27:46.339Z,55.34
2017-07-16T06:28:46.681Z,55.54
2017-07-16T06:29:46.345Z,55.73
2017-07-16T06:30:52.168Z,56.4
2017-07-16T06:31:46.358Z,56.76
2017-07-16T06:32:46.714Z,56.47
2017-07-16T06:33:46.362Z,56.37
2017-07-16T06:34:46.717Z,55.92
2017-07-16T06:35:52.263Z,56.21
2017-07-16T06:36:46.379Z,56.01
2017-07-16T06:37:46.386Z,55.44
2017-07-16T06:38:46.727Z,55.24
2017-07-16T06:39:46.394Z,54.5
2017-07-16T06:40:54.410Z,53.63
2017-07-16T06:41:46.417Z,52.5
2017-07-16T06:42:46.850Z,51.85
2017-07-16T06:43:46.420Z,51.56
2017-07-16T06:44:46.765Z,50.91
2017-07-16T06:45:54.624Z,51.59
2017-07-16T06:46:46.775Z,52.81
2017-07-16T06:47:46.799Z,53.47
2017-07-16T06:48:46.786Z,54.4
2017-07-16T06:49:46.805Z,55.05
2017-07-16T06:50:53.014Z,55.92
2017-07-16T06:51:46.463Z,55.82
2017-07-16T06:52:46.893Z,55.54
2017-07-16T06:53:46.488Z,55.44
2017-07-16T06:54:46.524Z,54.66
2017-07-16T06:55:51.801Z,54.21
2017-07-16T06:56:47.009Z,53.75
2017-07-16T06:57:46.844Z,53.85
2017-07-16T06:58:46.856Z,52.53
2017-07-16T06:59:46.543Z,51.46
2017-07-16T07:00:50.857Z,52.26
2017-07-16T07:01:46.859Z,51.1
2017-07-16T07:02:46.522Z,50.71
2017-07-16T07:03:46.534Z,50.35
2017-07-16T07:04:46.548Z,49.39
2017-07-16T07:05:52.621Z,48.06
2017-07-16T07:06:46.994Z,46.15
2017-07-16T07:07:46.896Z,45.4
2017-07-16T07:08:48.451Z,45.9
2017-07-16T07:09:46.930Z,45.88
2017-07-16T07:10:52.157Z,45.22
2017-07-16T07:11:46.920Z,44.84
2017-07-16T07:12:46.587Z,44.18
2017-07-16T07:13:46.643Z,44.27
2017-07-16T07:14:46.604Z,44.84
2017-07-16T07:15:53.434Z,45.81
2017-07-16T07:16:46.956Z,44.84
2017-07-16T07:17:46.969Z,44.93
2017-07-16T07:18:46.679Z,45.13
2017-07-16T07:19:46.971Z,44.86
2017-07-16T07:20:55.196Z,43.79
2017-07-16T07:21:46.649Z,42.65
2017-07-16T07:22:46.656Z,41.99
2017-07-16T07:23:48.565Z,41.89
2017-07-16T07:24:47.017Z,43.26
2017-07-16T07:25:53.143Z,41.99
2017-07-16T07:26:47.021Z,41.89
2017-07-16T07:27:46.700Z,42.46
2017-07-16T07:28:47.093Z,42.26
2017-07-16T07:29:47.046Z,43.21
2017-07-16T07:30:51.759Z,43.6
2017-07-16T07:31:46.722Z,43.77
2017-07-16T07:32:47.066Z,44.06
2017-07-16T07:33:46.742Z,44.64
2017-07-16T07:34:46.741Z,44.54
2017-07-16T07:35:54.248Z,44.93
2017-07-16T07:36:46.752Z,44.72
2017-07-16T07:37:46.759Z,45.49
2017-07-16T07:38:46.775Z,44.81
2017-07-16T07:39:47.121Z,45.68
2017-07-16T07:40:53.347Z,45.78
2017-07-16T07:41:47.238Z,45.59
2017-07-16T07:42:47.201Z,46.25
2017-07-16T07:43:47.285Z,46.44
2017-07-16T07:44:47.195Z,46.83
2017-07-16T07:45:51.425Z,46.83
2017-07-16T07:46:46.894Z,46.08
2017-07-16T07:47:46.838Z,46.25
2017-07-16T07:48:47.177Z,46.26
2017-07-16T07:49:46.862Z,44.16
2017-07-16T07:50:52.924Z,43.21
2017-07-16T07:51:47.189Z,41.58
2017-07-16T07:52:47.198Z,40.92
2017-07-16T07:53:47.221Z,40.44
2017-07-16T07:54:47.209Z,39.98
2017-07-16T07:55:53.996Z,39.7
2017-07-16T07:56:47.244Z,38.95
2017-07-16T07:57:46.912Z,38.19
2017-07-16T07:58:47.248Z,37.41
2017-07-16T07:59:47.365Z,36.65
2017-07-16T08:00:54.779Z,36.87
2017-07-16T08:01:54.838Z,36.87
2017-07-16T08:02:56.285Z,36.08
2017-07-16T08:03:54.321Z,35.61
2017-07-16T08:04:54.365Z,36.1
2017-07-16T08:05:52.948Z,36.1
2017-07-16T08:06:52.137Z,35.71
2017-07-16T08:07:54.009Z,35.71
2017-07-16T08:08:46.980Z,33.48
2017-07-16T08:09:47.473Z,33.18
2017-07-16T08:10:54.603Z,33.67
2017-07-16T08:11:47.428Z,33.75
2017-07-16T08:12:47.014Z,33.83
2017-07-16T08:13:47.494Z,34.9
2017-07-16T08:14:47.414Z,34.03
2017-07-16T08:15:51.302Z,33.72
2017-07-16T08:16:47.705Z,33.15
2017-07-16T08:17:47.067Z,33.26
2017-07-16T08:18:47.063Z,32.29
2017-07-16T08:19:47.147Z,30.15
2017-07-16T08:20:53.151Z,30.83
2017-07-16T08:21:47.443Z,31.14
2017-07-16T08:22:47.454Z,30.94
2017-07-16T08:23:47.434Z,30.96
2017-07-16T08:24:47.794Z,30.85
2017-07-16T08:25:52.006Z,31.24
2017-07-16T08:26:47.473Z,29.76
2017-07-16T08:27:47.523Z,30.44
2017-07-16T08:28:47.501Z,28.99
2017-07-16T08:29:47.608Z,29.55
2017-07-16T08:30:52.303Z,29.44
2017-07-16T08:31:47.603Z,29.83
2017-07-16T08:32:47.215Z,29.93
2017-07-16T08:33:47.178Z,29.33
2017-07-16T08:34:47.639Z,30.12
2017-07-16T08:35:53.492Z,30.8
2017-07-16T08:36:47.248Z,31.19
2017-07-16T08:37:47.301Z,31
2017-07-16T08:38:47.665Z,30.12
2017-07-16T08:39:48.101Z,29.64
2017-07-16T08:40:49.990Z,30.24
2017-07-16T08:41:47.598Z,29.85
2017-07-16T08:42:47.263Z,30.41
2017-07-16T08:43:47.628Z,31.95
2017-07-16T08:44:47.604Z,30.98
2017-07-16T08:45:54.330Z,30.77
2017-07-16T08:46:47.644Z,30.77
2017-07-16T08:47:47.649Z,31.08
2017-07-16T08:48:47.637Z,30.51
2017-07-16T08:49:47.664Z,29.46
2017-07-16T08:50:52.156Z,28.39
2017-07-16T08:51:47.325Z,27.8
2017-07-16T08:52:47.665Z,28.57
2017-07-16T08:53:47.779Z,28.36
2017-07-16T08:54:47.692Z,27.76
2017-07-16T08:55:52.992Z,27.18
2017-07-16T08:56:47.365Z,29.52
2017-07-16T08:57:47.362Z,27
2017-07-16T08:58:47.375Z,27.01
2017-07-16T08:59:47.737Z,27.69
2017-07-16T09:00:52.142Z,28.47
2017-07-16T09:01:47.786Z,28.66
2017-07-16T09:02:47.400Z,29.24
2017-07-16T09:03:47.929Z,28.36
2017-07-16T09:04:47.751Z,29.8
2017-07-16T09:05:52.961Z,30.95
2017-07-16T09:06:47.761Z,30.94
2017-07-16T09:07:47.769Z,30.94
2017-07-16T09:08:47.788Z,30.82
2017-07-16T09:09:47.458Z,31.7
2017-07-16T09:10:52.581Z,33.04
2017-07-16T09:11:47.798Z,33.14
2017-07-16T09:12:47.816Z,32.17
2017-07-16T09:13:47.825Z,31.59
2017-07-16T09:14:47.816Z,33.14
2017-07-16T09:15:51.673Z,31.97
2017-07-16T09:16:47.494Z,31.01
2017-07-16T09:17:47.835Z,30.42
2017-07-16T09:18:47.529Z,31.2
2017-07-16T09:19:47.853Z,30.52
2017-07-16T09:20:53.315Z,29.84
2017-07-16T09:21:47.533Z,30.02
2017-07-16T09:22:47.868Z,30.99
2017-07-16T09:23:47.880Z,31.76
2017-07-16T09:24:47.882Z,31.57
2017-07-16T09:25:51.191Z,32.15
2017-07-16T09:26:47.894Z,30.81
2017-07-16T09:27:47.575Z,30.02
2017-07-16T09:28:47.907Z,30.81
2017-07-16T09:29:47.575Z,32.26
2017-07-16T09:30:57.119Z,33.23
2017-07-16T09:31:47.929Z,33.6
2017-07-16T09:32:47.937Z,33.6
2017-07-16T09:33:47.607Z,32.73
2017-07-16T09:34:47.958Z,32.06
2017-07-16T09:35:52.036Z,32.04
2017-07-16T09:36:47.668Z,32.52
2017-07-16T09:37:48.017Z,34.55
2017-07-16T09:38:47.637Z,35.42
2017-07-16T09:39:47.662Z,34.84
2017-07-16T09:40:53.563Z,33.99
2017-07-16T09:41:47.997Z,34.57
2017-07-16T09:42:49.674Z,33.8
2017-07-16T09:43:48.065Z,34.28
2017-07-16T09:44:48.017Z,32.64
2017-07-16T09:45:50.591Z,32.44
2017-07-16T09:46:48.192Z,33.02
2017-07-16T09:47:48.018Z,33.8
2017-07-16T09:48:48.019Z,33.02
2017-07-16T09:49:48.024Z,33.12
2017-07-16T09:50:52.994Z,33.97
2017-07-16T09:51:48.094Z,36.2
2017-07-16T09:52:48.113Z,34.34
2017-07-16T09:53:47.711Z,34.83
2017-07-16T09:54:48.196Z,35.12
2017-07-16T09:55:51.335Z,35.8
2017-07-16T09:56:48.867Z,34.54
2017-07-16T09:57:48.069Z,34.92
2017-07-16T09:58:48.071Z,36.76
2017-07-16T09:59:47.859Z,36.47
2017-07-16T10:00:55.203Z,36.18
2017-07-16T10:01:53.588Z,36.4
2017-07-16T10:02:49.582Z,36.2
2017-07-16T10:03:47.919Z,36.3
2017-07-16T10:04:47.766Z,36.2
2017-07-16T10:05:50.621Z,37.54
2017-07-16T10:06:47.805Z,37.65
2017-07-16T10:07:47.785Z,38.02
2017-07-16T10:08:47.822Z,37.82
2017-07-16T10:09:48.128Z,36.86
2017-07-16T10:10:51.409Z,36.1
2017-07-16T10:11:47.871Z,35.91
2017-07-16T10:12:47.947Z,36.1
2017-07-16T10:13:47.820Z,34.94
2017-07-16T10:14:47.823Z,35.42
2017-07-16T10:15:53.960Z,35.35
2017-07-16T10:16:48.187Z,36.3
2017-07-16T10:17:48.171Z,35.91
2017-07-16T10:18:48.178Z,36.1
2017-07-16T10:19:48.275Z,36.58
2017-07-16T10:20:53.678Z,37.09
2017-07-16T10:21:48.197Z,37.09
2017-07-16T10:22:47.860Z,36.41
2017-07-16T10:23:48.194Z,36.51
2017-07-16T10:24:47.868Z,36.51
2017-07-16T10:25:52.200Z,36.41
2017-07-16T10:26:48.563Z,36.62
2017-07-16T10:27:48.225Z,36.32
2017-07-16T10:28:47.893Z,36.04
2017-07-16T10:29:48.235Z,35.75
2017-07-16T10:30:54.240Z,35.94
2017-07-16T10:31:48.301Z,35.85
2017-07-16T10:32:48.148Z,35.27
2017-07-16T10:33:48.373Z,35.46
2017-07-16T10:34:48.319Z,36.12
2017-07-16T10:35:51.827Z,36.6
2017-07-16T10:36:48.286Z,36.43
2017-07-16T10:37:48.996Z,35.66
2017-07-16T10:38:48.293Z,36.33
2017-07-16T10:39:48.301Z,36.24
2017-07-16T10:40:52.666Z,35.85
2017-07-16T10:41:48.134Z,34.69
2017-07-16T10:42:48.446Z,35.17
2017-07-16T10:43:48.423Z,34.89
2017-07-16T10:44:48.016Z,34.97
2017-07-16T10:45:52.328Z,34.88
2017-07-16T10:46:48.693Z,34.97
2017-07-16T10:47:48.383Z,34.8
2017-07-16T10:48:48.341Z,35.07
2017-07-16T10:49:48.013Z,35.57
2017-07-16T10:50:53.508Z,34.59
2017-07-16T10:51:48.369Z,34.88
2017-07-16T10:52:48.148Z,35.94
2017-07-16T10:53:48.397Z,35.93
2017-07-16T10:54:48.379Z,36.58
2017-07-16T10:55:53.650Z,36.98
2017-07-16T10:56:49.285Z,37.15
2017-07-16T10:57:54.909Z,37.44
2017-07-16T10:58:50.845Z,37.34
2017-07-16T10:59:48.427Z,37.73
2017-07-16T11:00:53.964Z,37.54
2017-07-16T11:01:48.442Z,37.63
2017-07-16T11:02:48.074Z,37.44
2017-07-16T11:03:48.491Z,37.26
2017-07-16T11:04:48.082Z,37.26
2017-07-16T11:05:52.106Z,37.26
2017-07-16T11:06:50.569Z,36.49
2017-07-16T11:07:50.970Z,37.07
2017-07-16T11:08:49.954Z,36.68
2017-07-16T11:09:48.374Z,36.68
2017-07-16T11:10:50.531Z,36.7
2017-07-16T11:11:48.108Z,36.3
2017-07-16T11:12:48.455Z,36.32
2017-07-16T11:13:48.316Z,36.22
2017-07-16T11:14:48.129Z,36.22
2017-07-16T11:15:52.977Z,36.41
2017-07-16T11:16:48.136Z,35.93
2017-07-16T11:17:48.148Z,36.32
2017-07-16T11:18:48.166Z,36.12
2017-07-16T11:19:48.485Z,36.3
2017-07-16T11:20:50.841Z,36.88
2017-07-16T11:21:48.235Z,36.49
2017-07-16T11:22:48.190Z,37.05
2017-07-16T11:23:48.753Z,37.05
2017-07-16T11:24:48.574Z,37.34
2017-07-16T11:25:54.622Z,37.26
2017-07-16T11:26:48.531Z,37.94
2017-07-16T11:27:48.530Z,36.58
2017-07-16T11:28:48.235Z,36.1
2017-07-16T11:29:48.584Z,36.02
2017-07-16T11:30:53.431Z,35.73
2017-07-16T11:31:48.209Z,36.98
2017-07-16T11:32:48.614Z,37.77
2017-07-16T11:33:49.136Z,35.83
2017-07-16T11:34:48.439Z,36.12
2017-07-16T11:35:53.477Z,36.02
2017-07-16T11:36:48.698Z,35.83
2017-07-16T11:37:48.378Z,35.64
2017-07-16T11:38:48.707Z,35.54
2017-07-16T11:39:48.535Z,35.54
2017-07-16T11:40:53.590Z,37.38
2017-07-16T11:41:48.664Z,35.46
2017-07-16T11:42:48.775Z,34.78
2017-07-16T11:43:48.858Z,34.78
2017-07-16T11:44:48.301Z,34.59
2017-07-16T11:45:51.830Z,34.39
2017-07-16T11:46:48.318Z,35.28
2017-07-16T11:47:48.963Z,35.09
2017-07-16T11:48:49.756Z,37.92
2017-07-16T11:49:48.444Z,34.62
2017-07-16T11:50:49.654Z,34.23
2017-07-16T11:51:48.425Z,35.49
2017-07-16T11:52:48.742Z,34.06
2017-07-16T11:53:49.699Z,33.28
2017-07-16T11:54:49.252Z,33.38
2017-07-16T11:55:53.392Z,32.81
2017-07-16T11:56:48.710Z,33.11
2017-07-16T11:57:49.043Z,33.01
2017-07-16T11:58:48.936Z,33.12
2017-07-16T11:59:49.167Z,31.47
2017-07-16T12:00:51.439Z,31.08
2017-07-16T12:01:50.719Z,32.35
2017-07-16T12:02:50.252Z,31.77
2017-07-16T12:03:50.793Z,30.9
2017-07-16T12:04:50.793Z,31.19
2017-07-16T12:05:52.387Z,31.85
2017-07-16T12:06:52.071Z,32.42
2017-07-16T12:07:51.563Z,32.32
2017-07-16T12:08:51.808Z,33.39
2017-07-16T12:09:50.578Z,33.69
2017-07-16T12:10:50.885Z,33.49
2017-07-16T12:11:51.574Z,33.18
2017-07-16T12:12:50.177Z,33.2
2017-07-16T12:13:48.616Z,34.17
2017-07-16T12:14:49.212Z,34.08
2017-07-16T12:15:50.503Z,33.59
2017-07-16T12:16:48.846Z,33.59
2017-07-16T12:17:49.068Z,33.86
2017-07-16T12:18:49.153Z,33.96
2017-07-16T12:19:48.936Z,33.57
2017-07-16T12:20:51.746Z,33.57
2017-07-16T12:21:49.119Z,33.96
2017-07-16T12:22:48.536Z,34.54
2017-07-16T12:23:49.025Z,34.27
2017-07-16T12:24:49.271Z,33.78
2017-07-16T12:25:52.731Z,33.59
2017-07-16T12:26:49.067Z,33.29
2017-07-16T12:27:48.912Z,33.11
2017-07-16T12:28:48.895Z,32.04
2017-07-16T12:29:51.891Z,32.05
2017-07-16T12:30:51.826Z,31.37
2017-07-16T12:31:49.027Z,31.58
2017-07-16T12:32:48.644Z,30.32
2017-07-16T12:33:49.904Z,30.12
2017-07-16T12:34:49.222Z,30.71
2017-07-16T12:35:52.592Z,31.38
2017-07-16T12:36:48.940Z,31.58
2017-07-16T12:37:48.648Z,31
2017-07-16T12:38:48.763Z,30.51
2017-07-16T12:39:49.075Z,30.9
2017-07-16T12:40:52.165Z,31.48
2017-07-16T12:41:48.637Z,31.19
2017-07-16T12:42:49.017Z,31
2017-07-16T12:43:48.690Z,31.98
2017-07-16T12:44:49.017Z,31.01
2017-07-16T12:45:53.239Z,30.52
2017-07-16T12:46:49.083Z,30.33
2017-07-16T12:47:49.002Z,29.65
2017-07-16T12:48:49.075Z,31.3
2017-07-16T12:49:49.324Z,31.01
2017-07-16T12:50:50.931Z,30.33
2017-07-16T12:51:49.136Z,30.24
2017-07-16T12:52:49.355Z,31.98
2017-07-16T12:53:49.084Z,30.35
2017-07-16T12:54:50.050Z,30.93
2017-07-16T12:55:52.065Z,32
2017-07-16T12:56:49.424Z,30.83